sensor_id;sensor_type;location;lat;lon;timestamp;pressure;altitude;pressure_sealevel;temperature;humidity
77323;BME280;66384;51.052;9.850;2023-12-20T00:02:15;98325.89;;;4.40;88.49
77323;BME280;66384;51.052;9.850;2023-12-20T00:04:46;98326.35;;;4.39;88.51
77323;BME280;66384;51.052;9.850;2023-12-20T00:07:18;98329.81;;;4.40;88.54
77323;BME280;66384;51.052;9.850;2023-12-20T00:09:50;98327.74;;;4.40;88.65
77323;BME280;66384;51.052;9.850;2023-12-20T00:12:22;98329.95;;;4.40;88.64
77323;BME280;66384;51.052;9.850;2023-12-20T00:14:54;98328.80;;;4.41;88.66
77323;BME280;66384;51.052;9.850;2023-12-20T00:17:25;98334.05;;;4.40;88.73
77323;BME280;66384;51.052;9.850;2023-12-20T00:19:57;98330.12;;;4.40;88.75
77323;BME280;66384;51.052;9.850;2023-12-20T00:22:29;98328.77;;;4.40;88.86
77323;BME280;66384;51.052;9.850;2023-12-20T00:25:01;98333.45;;;4.42;88.82
77323;BME280;66384;51.052;9.850;2023-12-20T00:27:33;98331.34;;;4.44;88.84
77323;BME280;66384;51.052;9.850;2023-12-20T00:30:06;98329.50;;;4.45;88.83
77323;BME280;66384;51.052;9.850;2023-12-20T00:32:37;98331.73;;;4.45;88.93
77323;BME280;66384;51.052;9.850;2023-12-20T00:35:09;98330.05;;;4.45;88.92
77323;BME280;66384;51.052;9.850;2023-12-20T00:37:42;98323.48;;;4.47;88.94
77323;BME280;66384;51.052;9.850;2023-12-20T00:40:14;98318.80;;;4.49;88.74
77323;BME280;66384;51.052;9.850;2023-12-20T00:42:46;98320.36;;;4.50;88.88
77323;BME280;66384;51.052;9.850;2023-12-20T00:45:18;98326.90;;;4.51;88.81
77323;BME280;66384;51.052;9.850;2023-12-20T00:47:50;98319.43;;;4.52;88.89
77323;BME280;66384;51.052;9.850;2023-12-20T00:50:22;98322.71;;;4.53;88.93
77323;BME280;66384;51.052;9.850;2023-12-20T00:52:58;98323.30;;;4.51;88.82
77323;BME280;66384;51.052;9.850;2023-12-20T00:55:30;98318.34;;;4.50;88.92
77323;BME280;66384;51.052;9.850;2023-12-20T00:58:01;98319.04;;;4.50;88.84
77323;BME280;66384;51.052;9.850;2023-12-20T01:00:33;98315.27;;;4.50;88.93
77323;BME280;66384;51.052;9.850;2023-12-20T01:03:05;98314.48;;;4.52;88.91
77323;BME280;66384;51.052;9.850;2023-12-20T01:05:37;98301.20;;;4.52;88.99
77323;BME280;66384;51.052;9.850;2023-12-20T01:08:09;98298.73;;;4.53;88.97
77323;BME280;66384;51.052;9.850;2023-12-20T01:10:40;98299.33;;;4.55;88.97
77323;BME280;66384;51.052;9.850;2023-12-20T01:13:12;98303.17;;;4.58;88.94
77323;BME280;66384;51.052;9.850;2023-12-20T01:15:44;98300.72;;;4.61;89.00
77323;BME280;66384;51.052;9.850;2023-12-20T01:18:16;98298.55;;;4.61;88.91
77323;BME280;66384;51.052;9.850;2023-12-20T01:20:47;98294.52;;;4.63;88.96
77323;BME280;66384;51.052;9.850;2023-12-20T01:23:19;98297.77;;;4.63;88.83
77323;BME280;66384;51.052;9.850;2023-12-20T01:25:51;98300.86;;;4.64;88.85
77323;BME280;66384;51.052;9.850;2023-12-20T01:28:22;98299.23;;;4.65;88.92
77323;BME280;66384;51.052;9.850;2023-12-20T01:30:54;98294.00;;;4.67;88.85
77323;BME280;66384;51.052;9.850;2023-12-20T01:33:26;98294.78;;;4.69;88.87
77323;BME280;66384;51.052;9.850;2023-12-20T01:35:57;98290.20;;;4.69;88.82
77323;BME280;66384;51.052;9.850;2023-12-20T01:38:29;98290.59;;;4.70;88.86
77323;BME280;66384;51.052;9.850;2023-12-20T01:41:01;98293.23;;;4.72;88.92
77323;BME280;66384;51.052;9.850;2023-12-20T01:43:32;98298.10;;;4.75;88.96
77323;BME280;66384;51.052;9.850;2023-12-20T01:46:20;98302.07;;;4.75;88.78
77323;BME280;66384;51.052;9.850;2023-12-20T01:48:52;98303.83;;;4.77;88.74
77323;BME280;66384;51.052;9.850;2023-12-20T01:51:25;98307.42;;;4.78;88.78
77323;BME280;66384;51.052;9.850;2023-12-20T01:53:58;98303.01;;;4.78;88.79
77323;BME280;66384;51.052;9.850;2023-12-20T01:56:32;98307.70;;;4.80;88.62
77323;BME280;66384;51.052;9.850;2023-12-20T01:59:04;98303.42;;;4.80;88.67
77323;BME280;66384;51.052;9.850;2023-12-20T02:01:35;98296.65;;;4.81;88.63
77323;BME280;66384;51.052;9.850;2023-12-20T02:04:08;98287.87;;;4.83;88.65
77323;BME280;66384;51.052;9.850;2023-12-20T02:06:41;98284.58;;;4.85;88.58
77323;BME280;66384;51.052;9.850;2023-12-20T02:09:14;98274.37;;;4.86;88.55
77323;BME280;66384;51.052;9.850;2023-12-20T02:11:46;98279.00;;;4.87;88.49
77323;BME280;66384;51.052;9.850;2023-12-20T02:14:18;98270.47;;;4.86;88.47
77323;BME280;66384;51.052;9.850;2023-12-20T02:16:49;98265.66;;;4.85;88.54
77323;BME280;66384;51.052;9.850;2023-12-20T02:19:21;98255.29;;;4.85;88.58
77323;BME280;66384;51.052;9.850;2023-12-20T02:22:06;98248.04;;;4.87;88.77
77323;BME280;66384;51.052;9.850;2023-12-20T02:24:38;98251.70;;;4.89;88.59
77323;BME280;66384;51.052;9.850;2023-12-20T02:27:10;98249.08;;;4.92;88.54
77323;BME280;66384;51.052;9.850;2023-12-20T02:29:42;98247.81;;;4.94;88.40
77323;BME280;66384;51.052;9.850;2023-12-20T02:32:14;98261.86;;;4.96;88.45
77323;BME280;66384;51.052;9.850;2023-12-20T02:34:46;98255.11;;;4.98;88.38
77323;BME280;66384;51.052;9.850;2023-12-20T02:37:19;98243.86;;;4.97;88.16
77323;BME280;66384;51.052;9.850;2023-12-20T02:39:51;98249.48;;;4.97;88.30
77323;BME280;66384;51.052;9.850;2023-12-20T02:42:22;98251.19;;;4.97;88.27
77323;BME280;66384;51.052;9.850;2023-12-20T02:44:54;98252.59;;;4.99;88.40
77323;BME280;66384;51.052;9.850;2023-12-20T02:47:26;98252.83;;;5.00;88.31
77323;BME280;66384;51.052;9.850;2023-12-20T02:49:57;98252.20;;;5.02;88.35
77323;BME280;66384;51.052;9.850;2023-12-20T02:52:30;98251.56;;;5.03;88.13
77323;BME280;66384;51.052;9.850;2023-12-20T02:55:02;98251.58;;;5.04;88.21
77323;BME280;66384;51.052;9.850;2023-12-20T02:57:33;98255.48;;;5.03;88.12
77323;BME280;66384;51.052;9.850;2023-12-20T03:00:08;98248.13;;;5.02;88.16
77323;BME280;66384;51.052;9.850;2023-12-20T03:02:40;98248.65;;;5.02;88.26
77323;BME280;66384;51.052;9.850;2023-12-20T03:05:12;98252.73;;;5.02;88.27
77323;BME280;66384;51.052;9.850;2023-12-20T03:07:44;98261.23;;;5.01;88.26
77323;BME280;66384;51.052;9.850;2023-12-20T03:10:16;98259.63;;;5.00;88.52
77323;BME280;66384;51.052;9.850;2023-12-20T03:12:56;98259.81;;;5.00;88.43
77323;BME280;66384;51.052;9.850;2023-12-20T03:15:27;98265.06;;;4.99;88.50
77323;BME280;66384;51.052;9.850;2023-12-20T03:17:59;98268.27;;;4.99;88.52
77323;BME280;66384;51.052;9.850;2023-12-20T03:20:31;98273.52;;;4.97;88.68
77323;BME280;66384;51.052;9.850;2023-12-20T03:23:04;98272.95;;;4.96;88.68
77323;BME280;66384;51.052;9.850;2023-12-20T03:25:36;98275.84;;;4.96;88.82
77323;BME280;66384;51.052;9.850;2023-12-20T03:28:08;98285.05;;;4.96;88.82
77323;BME280;66384;51.052;9.850;2023-12-20T03:30:40;98282.32;;;4.96;88.97
77323;BME280;66384;51.052;9.850;2023-12-20T03:33:12;98282.33;;;4.96;89.35
77323;BME280;66384;51.052;9.850;2023-12-20T03:35:44;98282.86;;;4.97;89.44
77323;BME280;66384;51.052;9.850;2023-12-20T03:38:15;98278.11;;;4.98;89.43
77323;BME280;66384;51.052;9.850;2023-12-20T03:40:47;98278.71;;;5.00;89.45
77323;BME280;66384;51.052;9.850;2023-12-20T03:43:19;98275.71;;;5.01;89.22
77323;BME280;66384;51.052;9.850;2023-12-20T03:45:50;98277.31;;;5.03;88.99
77323;BME280;66384;51.052;9.850;2023-12-20T03:48:22;98277.23;;;5.05;89.03
77323;BME280;66384;51.052;9.850;2023-12-20T03:50:54;98276.41;;;5.06;88.87
77323;BME280;66384;51.052;9.850;2023-12-20T03:53:26;98277.20;;;5.09;88.77
77323;BME280;66384;51.052;9.850;2023-12-20T03:55:57;98276.11;;;5.12;88.75
77323;BME280;66384;51.052;9.850;2023-12-20T03:58:29;98265.10;;;5.13;88.82
77323;BME280;66384;51.052;9.850;2023-12-20T04:01:01;98273.20;;;5.15;88.56
77323;BME280;66384;51.052;9.850;2023-12-20T04:03:33;98277.68;;;5.17;88.61
77323;BME280;66384;51.052;9.850;2023-12-20T04:06:05;98281.85;;;5.18;88.67
77323;BME280;66384;51.052;9.850;2023-12-20T04:08:37;98278.98;;;5.19;88.68
77323;BME280;66384;51.052;9.850;2023-12-20T04:11:09;98278.14;;;5.20;88.61
77323;BME280;66384;51.052;9.850;2023-12-20T04:13:41;98278.89;;;5.21;88.66
77323;BME280;66384;51.052;9.850;2023-12-20T04:16:12;98282.46;;;5.21;88.42
77323;BME280;66384;51.052;9.850;2023-12-20T04:18:44;98285.23;;;5.21;88.46
77323;BME280;66384;51.052;9.850;2023-12-20T04:21:16;98282.85;;;5.22;88.40
77323;BME280;66384;51.052;9.850;2023-12-20T04:23:48;98288.16;;;5.22;88.50
77323;BME280;66384;51.052;9.850;2023-12-20T04:26:20;98291.55;;;5.22;88.58
77323;BME280;66384;51.052;9.850;2023-12-20T04:28:51;98290.49;;;5.21;88.48
77323;BME280;66384;51.052;9.850;2023-12-20T04:31:24;98293.05;;;5.21;88.42
77323;BME280;66384;51.052;9.850;2023-12-20T04:33:56;98298.94;;;5.20;88.33
77323;BME280;66384;51.052;9.850;2023-12-20T04:36:28;98302.59;;;5.17;87.99
77323;BME280;66384;51.052;9.850;2023-12-20T04:39:00;98295.67;;;5.15;87.86
77323;BME280;66384;51.052;9.850;2023-12-20T04:41:32;98298.55;;;5.14;87.73
77323;BME280;66384;51.052;9.850;2023-12-20T04:44:03;98299.38;;;5.14;87.64
77323;BME280;66384;51.052;9.850;2023-12-20T04:46:35;98298.34;;;5.13;87.77
77323;BME280;66384;51.052;9.850;2023-12-20T04:49:07;98289.79;;;5.12;87.59
77323;BME280;66384;51.052;9.850;2023-12-20T04:51:39;98287.87;;;5.11;87.56
77323;BME280;66384;51.052;9.850;2023-12-20T04:54:11;98289.02;;;5.10;87.38
77323;BME280;66384;51.052;9.850;2023-12-20T04:56:44;98290.82;;;5.09;87.31
77323;BME280;66384;51.052;9.850;2023-12-20T04:59:15;98287.21;;;5.08;87.09
77323;BME280;66384;51.052;9.850;2023-12-20T05:01:47;98288.92;;;5.04;87.06
77323;BME280;66384;51.052;9.850;2023-12-20T05:04:19;98283.31;;;4.99;86.92
77323;BME280;66384;51.052;9.850;2023-12-20T05:06:51;98289.59;;;4.95;86.82
77323;BME280;66384;51.052;9.850;2023-12-20T05:09:22;98299.70;;;4.92;86.49
77323;BME280;66384;51.052;9.850;2023-12-20T05:11:54;98302.33;;;4.90;86.30
77323;BME280;66384;51.052;9.850;2023-12-20T05:14:26;98307.27;;;4.90;86.63
77323;BME280;66384;51.052;9.850;2023-12-20T05:16:58;98303.45;;;4.88;86.51
77323;BME280;66384;51.052;9.850;2023-12-20T05:19:30;98305.84;;;4.88;86.59
77323;BME280;66384;51.052;9.850;2023-12-20T05:22:02;98305.60;;;4.87;86.54
77323;BME280;66384;51.052;9.850;2023-12-20T05:24:34;98305.23;;;4.86;86.48
77323;BME280;66384;51.052;9.850;2023-12-20T05:27:06;98309.64;;;4.85;86.48
77323;BME280;66384;51.052;9.850;2023-12-20T05:29:37;98308.41;;;4.85;86.62
77323;BME280;66384;51.052;9.850;2023-12-20T05:32:09;98308.76;;;4.85;86.54
77323;BME280;66384;51.052;9.850;2023-12-20T05:34:41;98317.30;;;4.85;86.69
77323;BME280;66384;51.052;9.850;2023-12-20T05:37:13;98320.39;;;4.86;86.61
77323;BME280;66384;51.052;9.850;2023-12-20T05:39:45;98317.34;;;4.86;86.43
77323;BME280;66384;51.052;9.850;2023-12-20T05:42:17;98316.13;;;4.86;86.59
77323;BME280;66384;51.052;9.850;2023-12-20T05:44:48;98313.37;;;4.85;86.45
77323;BME280;66384;51.052;9.850;2023-12-20T05:47:23;98306.63;;;4.83;86.34
77323;BME280;66384;51.052;9.850;2023-12-20T05:49:55;98308.21;;;4.80;85.67
77323;BME280;66384;51.052;9.850;2023-12-20T05:52:27;98313.86;;;4.77;85.21
77323;BME280;66384;51.052;9.850;2023-12-20T05:54:59;98310.11;;;4.73;84.41
77323;BME280;66384;51.052;9.850;2023-12-20T05:57:32;98313.25;;;4.70;83.98
77323;BME280;66384;51.052;9.850;2023-12-20T06:00:04;98313.03;;;4.66;83.74
77323;BME280;66384;51.052;9.850;2023-12-20T06:02:36;98313.91;;;4.63;83.40
77323;BME280;66384;51.052;9.850;2023-12-20T06:05:08;98317.05;;;4.60;83.20
77323;BME280;66384;51.052;9.850;2023-12-20T06:07:40;98322.38;;;4.57;82.89
77323;BME280;66384;51.052;9.850;2023-12-20T06:10:12;98324.40;;;4.53;82.42
77323;BME280;66384;51.052;9.850;2023-12-20T06:12:44;98326.92;;;4.48;81.81
77323;BME280;66384;51.052;9.850;2023-12-20T06:15:17;98326.95;;;4.45;81.91
77323;BME280;66384;51.052;9.850;2023-12-20T06:17:49;98330.05;;;4.41;81.56
77323;BME280;66384;51.052;9.850;2023-12-20T06:20:21;98326.95;;;4.37;81.45
77323;BME280;66384;51.052;9.850;2023-12-20T06:22:53;98326.83;;;4.34;81.45
77323;BME280;66384;51.052;9.850;2023-12-20T06:25:24;98324.13;;;4.31;81.52
77323;BME280;66384;51.052;9.850;2023-12-20T06:27:56;98324.05;;;4.32;81.37
77323;BME280;66384;51.052;9.850;2023-12-20T06:30:28;98327.35;;;4.30;80.82
77323;BME280;66384;51.052;9.850;2023-12-20T06:33:00;98332.54;;;4.25;80.85
77323;BME280;66384;51.052;9.850;2023-12-20T06:35:31;98334.21;;;4.20;80.93
77323;BME280;66384;51.052;9.850;2023-12-20T06:38:06;98335.41;;;4.17;80.70
77323;BME280;66384;51.052;9.850;2023-12-20T06:40:39;98331.20;;;4.14;81.11
77323;BME280;66384;51.052;9.850;2023-12-20T06:43:10;98334.17;;;4.12;81.17
77323;BME280;66384;51.052;9.850;2023-12-20T06:46:01;98332.88;;;4.09;81.28
77323;BME280;66384;51.052;9.850;2023-12-20T06:48:33;98334.90;;;4.09;81.27
77323;BME280;66384;51.052;9.850;2023-12-20T06:51:05;98332.61;;;4.08;81.31
77323;BME280;66384;51.052;9.850;2023-12-20T06:53:37;98336.14;;;4.06;81.45
77323;BME280;66384;51.052;9.850;2023-12-20T06:56:09;98330.87;;;4.07;81.62
77323;BME280;66384;51.052;9.850;2023-12-20T06:58:43;98327.95;;;4.06;81.82
77323;BME280;66384;51.052;9.850;2023-12-20T07:01:16;98325.45;;;4.07;81.84
77323;BME280;66384;51.052;9.850;2023-12-20T07:03:57;98321.58;;;4.08;81.70
77323;BME280;66384;51.052;9.850;2023-12-20T07:06:29;98323.00;;;4.09;81.55
77323;BME280;66384;51.052;9.850;2023-12-20T07:09:00;98328.70;;;4.12;81.61
77323;BME280;66384;51.052;9.850;2023-12-20T07:11:32;98324.27;;;4.12;81.65
77323;BME280;66384;51.052;9.850;2023-12-20T07:14:03;98325.52;;;4.13;81.72
77323;BME280;66384;51.052;9.850;2023-12-20T07:16:36;98321.11;;;4.13;81.86
77323;BME280;66384;51.052;9.850;2023-12-20T07:19:07;98326.29;;;4.14;81.78
77323;BME280;66384;51.052;9.850;2023-12-20T07:21:39;98329.31;;;4.14;81.77
77323;BME280;66384;51.052;9.850;2023-12-20T07:24:11;98328.27;;;4.14;81.79
77323;BME280;66384;51.052;9.850;2023-12-20T07:26:42;98330.02;;;4.14;82.03
77323;BME280;66384;51.052;9.850;2023-12-20T07:29:14;98334.64;;;4.15;81.63
77323;BME280;66384;51.052;9.850;2023-12-20T07:31:46;98339.75;;;4.15;81.74
77323;BME280;66384;51.052;9.850;2023-12-20T07:34:18;98338.06;;;4.15;81.87
77323;BME280;66384;51.052;9.850;2023-12-20T07:36:50;98342.19;;;4.16;81.79
77323;BME280;66384;51.052;9.850;2023-12-20T07:39:21;98350.71;;;4.17;81.88
77323;BME280;66384;51.052;9.850;2023-12-20T07:41:53;98352.65;;;4.18;81.83
77323;BME280;66384;51.052;9.850;2023-12-20T07:44:25;98353.89;;;4.20;81.85
77323;BME280;66384;51.052;9.850;2023-12-20T07:46:57;98350.55;;;4.21;81.76
77323;BME280;66384;51.052;9.850;2023-12-20T07:49:29;98350.90;;;4.21;81.64
77323;BME280;66384;51.052;9.850;2023-12-20T07:52:01;98355.02;;;4.21;81.58
77323;BME280;66384;51.052;9.850;2023-12-20T07:54:33;98352.12;;;4.21;81.52
77323;BME280;66384;51.052;9.850;2023-12-20T07:57:05;98352.66;;;4.22;81.69
77323;BME280;66384;51.052;9.850;2023-12-20T07:59:37;98351.31;;;4.23;81.56
77323;BME280;66384;51.052;9.850;2023-12-20T08:02:08;98357.84;;;4.24;81.62
77323;BME280;66384;51.052;9.850;2023-12-20T08:04:40;98353.13;;;4.25;81.72
77323;BME280;66384;51.052;9.850;2023-12-20T08:07:12;98364.05;;;4.26;81.75
77323;BME280;66384;51.052;9.850;2023-12-20T08:09:44;98363.71;;;4.25;81.61
77323;BME280;66384;51.052;9.850;2023-12-20T08:12:15;98362.16;;;4.26;81.68
77323;BME280;66384;51.052;9.850;2023-12-20T08:14:47;98365.39;;;4.25;81.62
77323;BME280;66384;51.052;9.850;2023-12-20T08:17:19;98366.06;;;4.25;81.74
77323;BME280;66384;51.052;9.850;2023-12-20T08:19:51;98366.65;;;4.26;81.89
77323;BME280;66384;51.052;9.850;2023-12-20T08:22:23;98367.20;;;4.27;82.05
77323;BME280;66384;51.052;9.850;2023-12-20T08:24:55;98369.25;;;4.28;81.97
77323;BME280;66384;51.052;9.850;2023-12-20T08:27:26;98366.84;;;4.30;82.09
77323;BME280;66384;51.052;9.850;2023-12-20T08:29:58;98362.14;;;4.32;81.81
77323;BME280;66384;51.052;9.850;2023-12-20T08:32:30;98371.41;;;4.34;81.81
77323;BME280;66384;51.052;9.850;2023-12-20T08:35:02;98381.89;;;4.36;81.64
77323;BME280;66384;51.052;9.850;2023-12-20T08:37:34;98379.35;;;4.36;81.80
77323;BME280;66384;51.052;9.850;2023-12-20T08:40:08;98379.75;;;4.38;81.95
77323;BME280;66384;51.052;9.850;2023-12-20T08:42:40;98379.30;;;4.39;81.76
77323;BME280;66384;51.052;9.850;2023-12-20T08:45:12;98373.63;;;4.41;81.80
77323;BME280;66384;51.052;9.850;2023-12-20T08:47:43;98376.60;;;4.43;81.92
77323;BME280;66384;51.052;9.850;2023-12-20T08:50:16;98371.77;;;4.46;81.57
77323;BME280;66384;51.052;9.850;2023-12-20T08:52:49;98376.45;;;4.47;81.41
77323;BME280;66384;51.052;9.850;2023-12-20T08:55:21;98372.35;;;4.51;81.62
77323;BME280;66384;51.052;9.850;2023-12-20T08:57:53;98379.49;;;4.54;81.63
77323;BME280;66384;51.052;9.850;2023-12-20T09:00:24;98384.80;;;4.59;81.35
77323;BME280;66384;51.052;9.850;2023-12-20T09:02:58;98378.98;;;4.62;81.24
77323;BME280;66384;51.052;9.850;2023-12-20T09:05:30;98377.89;;;4.65;81.22
77323;BME280;66384;51.052;9.850;2023-12-20T09:08:01;98375.52;;;4.69;81.24
77323;BME280;66384;51.052;9.850;2023-12-20T09:10:33;98374.34;;;4.73;81.03
77323;BME280;66384;51.052;9.850;2023-12-20T09:13:05;98380.37;;;4.74;80.62
77323;BME280;66384;51.052;9.850;2023-12-20T09:15:37;98375.97;;;4.75;80.50
77323;BME280;66384;51.052;9.850;2023-12-20T09:18:09;98385.66;;;4.79;80.64
77323;BME280;66384;51.052;9.850;2023-12-20T09:20:40;98379.09;;;4.81;80.43
77323;BME280;66384;51.052;9.850;2023-12-20T09:23:14;98377.05;;;4.85;80.46
77323;BME280;66384;51.052;9.850;2023-12-20T09:25:47;98375.69;;;4.88;80.39
77323;BME280;66384;51.052;9.850;2023-12-20T09:28:18;98376.05;;;4.92;80.43
77323;BME280;66384;51.052;9.850;2023-12-20T09:30:50;98374.17;;;4.96;80.51
77323;BME280;66384;51.052;9.850;2023-12-20T09:33:22;98375.48;;;4.99;80.40
77323;BME280;66384;51.052;9.850;2023-12-20T09:35:55;98376.37;;;5.04;80.44
77323;BME280;66384;51.052;9.850;2023-12-20T09:38:27;98380.89;;;5.10;80.08
77323;BME280;66384;51.052;9.850;2023-12-20T09:40:59;98381.15;;;5.12;79.63
77323;BME280;66384;51.052;9.850;2023-12-20T09:43:34;98381.06;;;5.14;79.81
77323;BME280;66384;51.052;9.850;2023-12-20T09:46:07;98380.48;;;5.17;80.13
77323;BME280;66384;51.052;9.850;2023-12-20T09:48:43;98382.92;;;5.18;79.79
77323;BME280;66384;51.052;9.850;2023-12-20T09:51:16;98383.05;;;5.17;79.69
77323;BME280;66384;51.052;9.850;2023-12-20T09:53:48;98383.34;;;5.16;79.71
77323;BME280;66384;51.052;9.850;2023-12-20T09:56:22;98383.02;;;5.12;79.89
77323;BME280;66384;51.052;9.850;2023-12-20T09:58:54;98379.50;;;5.10;79.99
77323;BME280;66384;51.052;9.850;2023-12-20T10:01:26;98378.91;;;5.08;79.95
77323;BME280;66384;51.052;9.850;2023-12-20T10:03:58;98371.89;;;5.07;80.19
77323;BME280;66384;51.052;9.850;2023-12-20T10:06:35;98375.60;;;5.07;80.00
77323;BME280;66384;51.052;9.850;2023-12-20T10:09:07;98369.63;;;5.06;79.94
77323;BME280;66384;51.052;9.850;2023-12-20T10:11:40;98362.66;;;5.07;79.90
77323;BME280;66384;51.052;9.850;2023-12-20T10:14:13;98356.89;;;5.07;79.71
77323;BME280;66384;51.052;9.850;2023-12-20T10:16:45;98354.82;;;5.11;80.06
77323;BME280;66384;51.052;9.850;2023-12-20T10:19:19;98346.59;;;5.13;80.12
77323;BME280;66384;51.052;9.850;2023-12-20T10:21:51;98340.02;;;5.15;80.05
77323;BME280;66384;51.052;9.850;2023-12-20T10:24:23;98345.88;;;5.17;79.89
77323;BME280;66384;51.052;9.850;2023-12-20T10:27:04;98346.09;;;5.18;79.52
77323;BME280;66384;51.052;9.850;2023-12-20T10:29:36;98347.14;;;5.18;79.19
77323;BME280;66384;51.052;9.850;2023-12-20T10:32:25;98348.18;;;5.19;79.05
77323;BME280;66384;51.052;9.850;2023-12-20T10:34:57;98339.98;;;5.18;79.21
77323;BME280;66384;51.052;9.850;2023-12-20T10:37:30;98331.79;;;5.18;79.27
77323;BME280;66384;51.052;9.850;2023-12-20T10:40:04;98325.77;;;5.17;79.00
77323;BME280;66384;51.052;9.850;2023-12-20T10:42:37;98325.44;;;5.17;79.45
77323;BME280;66384;51.052;9.850;2023-12-20T10:45:10;98320.58;;;5.19;79.31
77323;BME280;66384;51.052;9.850;2023-12-20T10:47:43;98316.67;;;5.19;79.11
77323;BME280;66384;51.052;9.850;2023-12-20T10:50:19;98308.65;;;5.19;79.03
77323;BME280;66384;51.052;9.850;2023-12-20T10:52:52;98308.84;;;5.20;79.34
77323;BME280;66384;51.052;9.850;2023-12-20T10:55:26;98310.44;;;5.21;79.25
77323;BME280;66384;51.052;9.850;2023-12-20T10:58:02;98313.73;;;5.22;79.10
77323;BME280;66384;51.052;9.850;2023-12-20T11:00:39;98310.70;;;5.23;78.89
77323;BME280;66384;51.052;9.850;2023-12-20T11:03:13;98309.98;;;5.23;78.76
77323;BME280;66384;51.052;9.850;2023-12-20T11:05:51;98306.13;;;5.24;79.19
77323;BME280;66384;51.052;9.850;2023-12-20T11:08:25;98300.54;;;5.25;79.20
77323;BME280;66384;51.052;9.850;2023-12-20T11:11:02;98297.88;;;5.27;79.02
77323;BME280;66384;51.052;9.850;2023-12-20T11:13:37;98296.38;;;5.28;79.04
77323;BME280;66384;51.052;9.850;2023-12-20T11:16:12;98294.06;;;5.30;79.48
77323;BME280;66384;51.052;9.850;2023-12-20T11:18:46;98299.13;;;5.33;78.50
77323;BME280;66384;51.052;9.850;2023-12-20T11:21:18;98287.52;;;5.32;78.58
77323;BME280;66384;51.052;9.850;2023-12-20T11:23:50;98288.87;;;5.32;78.77
77323;BME280;66384;51.052;9.850;2023-12-20T11:26:28;98279.27;;;5.31;78.63
77323;BME280;66384;51.052;9.850;2023-12-20T11:32:03;98273.60;;;5.29;78.77
77323;BME280;66384;51.052;9.850;2023-12-20T11:34:37;98274.88;;;5.31;79.08
77323;BME280;66384;51.052;9.850;2023-12-20T11:37:09;98271.82;;;5.32;79.22
77323;BME280;66384;51.052;9.850;2023-12-20T11:39:40;98281.42;;;5.33;79.17
77323;BME280;66384;51.052;9.850;2023-12-20T11:42:14;98274.95;;;5.33;79.56
77323;BME280;66384;51.052;9.850;2023-12-20T11:44:46;98273.53;;;5.32;79.58
77323;BME280;66384;51.052;9.850;2023-12-20T11:47:19;98274.00;;;5.31;79.45
77323;BME280;66384;51.052;9.850;2023-12-20T11:49:51;98272.68;;;5.28;79.49
77323;BME280;66384;51.052;9.850;2023-12-20T11:52:23;98273.64;;;5.26;79.84
77323;BME280;66384;51.052;9.850;2023-12-20T11:54:54;98267.11;;;5.25;80.28
77323;BME280;66384;51.052;9.850;2023-12-20T11:57:27;98271.17;;;5.24;80.13
77323;BME280;66384;51.052;9.850;2023-12-20T11:59:58;98266.16;;;5.22;79.97
77323;BME280;66384;51.052;9.850;2023-12-20T12:02:31;98262.45;;;5.19;80.30
77323;BME280;66384;51.052;9.850;2023-12-20T12:05:03;98257.17;;;5.19;80.33
77323;BME280;66384;51.052;9.850;2023-12-20T12:07:36;98252.80;;;5.21;80.59
77323;BME280;66384;51.052;9.850;2023-12-20T12:10:09;98250.13;;;5.22;80.90
77323;BME280;66384;51.052;9.850;2023-12-20T12:12:40;98258.33;;;5.23;80.57
77323;BME280;66384;51.052;9.850;2023-12-20T12:15:13;98253.23;;;5.23;80.36
77323;BME280;66384;51.052;9.850;2023-12-20T12:17:45;98256.87;;;5.24;80.39
77323;BME280;66384;51.052;9.850;2023-12-20T12:20:24;98256.13;;;5.23;80.27
77323;BME280;66384;51.052;9.850;2023-12-20T12:23:00;98245.33;;;5.22;80.16
77323;BME280;66384;51.052;9.850;2023-12-20T12:25:34;98241.58;;;5.22;80.32
77323;BME280;66384;51.052;9.850;2023-12-20T12:28:12;98243.30;;;5.22;80.37
77323;BME280;66384;51.052;9.850;2023-12-20T12:30:44;98233.71;;;5.21;80.48
77323;BME280;66384;51.052;9.850;2023-12-20T12:33:27;98225.50;;;5.20;80.46
77323;BME280;66384;51.052;9.850;2023-12-20T12:35:59;98225.63;;;5.19;80.39
77323;BME280;66384;51.052;9.850;2023-12-20T12:38:31;98214.67;;;5.18;80.35
77323;BME280;66384;51.052;9.850;2023-12-20T12:41:04;98210.59;;;5.18;80.34
77323;BME280;66384;51.052;9.850;2023-12-20T12:43:38;98202.58;;;5.18;80.50
77323;BME280;66384;51.052;9.850;2023-12-20T12:46:09;98203.59;;;5.18;80.39
77323;BME280;66384;51.052;9.850;2023-12-20T12:48:42;98197.80;;;5.18;80.23
77323;BME280;66384;51.052;9.850;2023-12-20T12:51:16;98193.15;;;5.17;80.17
77323;BME280;66384;51.052;9.850;2023-12-20T12:53:48;98193.45;;;5.16;80.07
77323;BME280;66384;51.052;9.850;2023-12-20T12:56:20;98190.36;;;5.15;80.25
77323;BME280;66384;51.052;9.850;2023-12-20T12:58:52;98182.33;;;5.15;80.15
77323;BME280;66384;51.052;9.850;2023-12-20T13:01:24;98172.30;;;5.15;80.16
77323;BME280;66384;51.052;9.850;2023-12-20T13:03:56;98164.70;;;5.17;80.28
77323;BME280;66384;51.052;9.850;2023-12-20T13:06:27;98160.90;;;5.21;80.33
77323;BME280;66384;51.052;9.850;2023-12-20T13:08:59;98152.88;;;5.24;80.20
77323;BME280;66384;51.052;9.850;2023-12-20T13:11:31;98147.86;;;5.27;80.06
77323;BME280;66384;51.052;9.850;2023-12-20T13:14:03;98152.76;;;5.31;80.13
77323;BME280;66384;51.052;9.850;2023-12-20T13:16:35;98155.67;;;5.31;79.97
77323;BME280;66384;51.052;9.850;2023-12-20T13:19:07;98156.39;;;5.32;80.14
77323;BME280;66384;51.052;9.850;2023-12-20T13:21:39;98160.87;;;5.33;79.80
77323;BME280;66384;51.052;9.850;2023-12-20T13:24:11;98157.40;;;5.32;79.71
77323;BME280;66384;51.052;9.850;2023-12-20T13:26:43;98152.94;;;5.31;79.82
77323;BME280;66384;51.052;9.850;2023-12-20T13:29:15;98154.30;;;5.31;79.45
77323;BME280;66384;51.052;9.850;2023-12-20T13:31:47;98150.84;;;5.29;79.46
77323;BME280;66384;51.052;9.850;2023-12-20T13:34:19;98144.41;;;5.31;79.49
77323;BME280;66384;51.052;9.850;2023-12-20T13:36:51;98140.98;;;5.30;79.41
77323;BME280;66384;51.052;9.850;2023-12-20T13:39:23;98147.60;;;5.29;79.37
77323;BME280;66384;51.052;9.850;2023-12-20T13:41:56;98144.98;;;5.28;79.35